Time;durP1;ratioP1;P1;durP2;ratioP2;P2;SDS_P1;SDS_P2;PMS_P1;PMS_P2;Temp;Humidity;BMP_temperature;BMP_pressure;BME280_temperature;BME280_humidity;BME280_pressure;Samples;Min_cycle;Max_cycle;Signal;HPM_P1;HPM_P2
2024/02/23 00:02:47;;;;;;;1.57;1.10;;;16.00;1.00;;;;;;2614168;54;20165;-58
2024/02/23 00:06:04;;;;;;;1.20;1.10;;;16.00;1.00;;;;;;2613560;54;20372;-57
2024/02/23 00:08:29;;;;;;;1.63;1.20;;;16.00;1.00;;;;;;2614908;54;20238;-56
2024/02/23 00:14:18;;;;;;;1.20;1.10;;;16.00;1.00;;;;;;2614192;54;20730;-59
2024/02/23 00:20:10;;;;;;;1.30;1.20;;;16.00;1.00;;;;;;2614861;54;20535;-58
2024/02/23 00:25:58;;;;;;;3.73;1.30;;;16.00;1.00;;;;;;2614215;54;20426;-58
2024/02/23 00:31:45;;;;;;;1.20;0.90;;;15.90;1.00;;;;;;2614585;54;20171;-54
2024/02/23 00:37:35;;;;;;;1.00;1.00;;;15.90;1.00;;;;;;2613575;54;20137;-57
2024/02/23 00:43:23;;;;;;;2.20;1.17;;;15.90;1.00;;;;;;2614654;31;20818;-58
2024/02/23 00:49:11;;;;;;;1.00;0.90;;;15.90;1.00;;;;;;2615422;54;20456;-58
2024/02/23 00:54:59;;;;;;;1.10;1.00;;;15.90;1.00;;;;;;2614342;54;20133;-58
2024/02/23 01:00:47;;;;;;;1.20;1.03;;;15.90;1.00;;;;;;2614996;54;20151;-53
2024/02/23 01:10:37;;;;;;;1.20;1.10;;;15.90;1.00;;;;;;2615400;54;20905;-54
2024/02/23 01:16:24;;;;;;;1.90;1.37;;;15.90;1.00;;;;;;2615093;54;20422;-54
2024/02/23 01:22:12;;;;;;;1.00;0.90;;;15.90;1.00;;;;;;2615410;54;20168;-53
2024/02/23 01:28:00;;;;;;;1.20;1.10;;;15.90;1.00;;;;;;2615561;54;20154;-52
2024/02/23 01:33:49;;;;;;;1.10;1.00;;;15.90;1.00;;;;;;2615307;54;20134;-53
2024/02/23 01:39:37;;;;;;;1.10;1.00;;;15.90;1.00;;;;;;2615287;54;20389;-53
2024/02/23 01:45:25;;;;;;;0.70;0.60;;;15.90;1.00;;;;;;2615093;54;20133;-54
2024/02/23 01:51:13;;;;;;;0.80;0.70;;;15.90;1.00;;;;;;2615624;54;20117;-54
2024/02/23 01:57:01;;;;;;;0.80;0.80;;;15.90;1.00;;;;;;2615572;54;20451;-53
2024/02/23 02:02:48;;;;;;;0.70;0.70;;;15.90;1.00;;;;;;2615591;54;21420;-51
2024/02/23 02:06:01;;;;;;;0.70;0.70;;;15.90;1.00;;;;;;2614351;39;20778;-50
2024/02/23 02:08:27;;;;;;;0.70;0.60;;;15.90;1.00;;;;;;2615223;54;20405;-53
2024/02/23 02:14:15;;;;;;;0.70;0.70;;;15.90;1.00;;;;;;2615087;54;20123;-54
2024/02/23 02:20:06;;;;;;;0.70;0.70;;;15.90;1.00;;;;;;2615311;54;20455;-53
2024/02/23 02:25:55;;;;;;;0.70;0.70;;;15.90;1.00;;;;;;2615220;39;20793;-54
2024/02/23 02:31:42;;;;;;;0.70;0.70;;;15.90;1.00;;;;;;2614833;54;20428;-54
2024/02/23 02:37:30;;;;;;;0.70;0.70;;;15.90;1.00;;;;;;2615100;54;20242;-55
2024/02/23 02:43:18;;;;;;;0.80;0.80;;;15.90;1.00;;;;;;2613410;39;20567;-55
2024/02/23 02:49:05;;;;;;;0.70;0.67;;;15.90;1.00;;;;;;2615212;54;20163;-54
2024/02/23 02:54:53;;;;;;;0.70;0.70;;;15.90;1.00;;;;;;2614939;54;20146;-54
2024/02/23 03:00:41;;;;;;;0.80;0.80;;;15.90;1.00;;;;;;2614884;54;20115;-55
2024/02/23 03:10:31;;;;;;;0.70;0.60;;;15.90;1.00;;;;;;2614839;54;20435;-54
2024/02/23 03:16:23;;;;;;;0.70;0.70;;;15.90;1.00;;;;;;2614616;54;20384;-56
2024/02/23 03:22:11;;;;;;;0.70;0.70;;;15.90;1.00;;;;;;2614987;54;20404;-55
2024/02/23 03:27:58;;;;;;;0.70;0.60;;;15.80;1.00;;;;;;2615003;54;20132;-55
2024/02/23 03:31:01;;;;;;;0.80;0.80;;;15.90;1.00;;;;;;2614836;54;20402;-55
2024/02/23 03:33:27;;;;;;;0.80;0.80;;;15.90;1.00;;;;;;2614198;54;20150;-57
2024/02/23 03:39:15;;;;;;;0.70;0.70;;;15.80;1.00;;;;;;2615555;39;20204;-57
2024/02/23 03:45:04;;;;;;;0.67;0.60;;;15.80;1.00;;;;;;2615085;54;20662;-58
2024/02/23 03:50:51;;;;;;;0.70;0.70;;;15.80;1.00;;;;;;2615051;54;20367;-58
2024/02/23 03:56:42;;;;;;;0.70;0.70;;;15.80;1.00;;;;;;2614567;54;20124;-57
2024/02/23 04:02:29;;;;;;;0.77;0.77;;;15.80;1.00;;;;;;2614370;54;20383;-58
2024/02/23 04:08:17;;;;;;;0.70;0.70;;;15.90;1.00;;;;;;2614851;54;20192;-58
2024/02/23 04:14:05;;;;;;;0.70;0.70;;;15.90;1.00;;;;;;2614439;54;20137;-54
2024/02/23 04:19:52;;;;;;;0.70;0.70;;;15.80;1.00;;;;;;2614860;54;20154;-57
2024/02/23 04:25:41;;;;;;;0.70;0.70;;;15.80;1.00;;;;;;2613437;54;20130;-59
2024/02/23 04:31:28;;;;;;;0.70;0.70;;;15.80;1.00;;;;;;2614321;54;20959;-56
2024/02/23 04:37:16;;;;;;;0.80;0.80;;;15.90;1.00;;;;;;2614524;54;20169;-55
2024/02/23 04:43:04;;;;;;;0.70;0.63;;;15.80;1.00;;;;;;2614843;54;20150;-52
2024/02/23 04:48:52;;;;;;;0.70;0.60;;;15.80;1.00;;;;;;2614605;39;20814;-52
2024/02/23 04:54:39;;;;;;;0.70;0.70;;;15.80;1.00;;;;;;2613847;54;20653;-54
2024/02/23 05:00:32;;;;;;;0.70;0.70;;;15.80;1.00;;;;;;2613909;54;20168;-55
2024/02/23 05:10:32;;;;;;;0.70;0.70;;;15.80;1.00;;;;;;2614962;39;20784;-55
2024/02/23 05:16:20;;;;;;;0.70;0.70;;;15.80;1.00;;;;;;2614420;39;20870;-52
2024/02/23 05:22:09;;;;;;;0.70;0.70;;;15.80;1.00;;;;;;2614808;54;20136;-51
2024/02/23 05:27:56;;;;;;;0.80;0.80;;;15.80;1.00;;;;;;2615006;54;20904;-54
2024/02/23 05:33:44;;;;;;;0.70;0.70;;;15.80;1.00;;;;;;2615081;54;20140;-53
2024/02/23 05:39:32;;;;;;;0.70;0.70;;;15.80;1.00;;;;;;2614829;54;20160;-52
2024/02/23 05:45:19;;;;;;;0.90;0.90;;;15.80;1.00;;;;;;2615819;39;20532;-58
2024/02/23 05:51:07;;;;;;;0.80;0.80;;;15.80;1.00;;;;;;2615657;54;20126;-58
2024/02/23 05:56:54;;;;;;;0.83;0.83;;;15.80;1.00;;;;;;2615141;54;20172;-56
2024/02/23 06:02:43;;;;;;;0.80;0.80;;;15.80;1.00;;;;;;2615133;54;20125;-56
2024/02/23 06:06:03;;;;;;;0.90;0.90;;;15.80;1.00;;;;;;2614504;46;20430;-56
2024/02/23 06:08:29;;;;;;;0.70;0.70;;;15.80;1.00;;;;;;2614402;54;20991;-53
2024/02/23 06:14:16;;;;;;;0.70;0.70;;;15.80;1.00;;;;;;2614462;54;20129;-55
2024/02/23 06:20:05;;;;;;;0.70;0.60;;;15.80;1.00;;;;;;2615473;54;20124;-57
2024/02/23 06:25:52;;;;;;;0.63;0.60;;;15.80;1.00;;;;;;2615139;54;20382;-53
2024/02/23 06:31:41;;;;;;;0.70;0.70;;;15.80;1.00;;;;;;2614679;54;20122;-57
2024/02/23 06:37:28;;;;;;;0.70;0.70;;;15.80;1.00;;;;;;2615570;39;20844;-57
2024/02/23 06:43:16;;;;;;;0.70;0.60;;;15.80;1.00;;;;;;2614655;39;20527;-55
2024/02/23 06:49:04;;;;;;;0.77;0.77;;;15.80;1.00;;;;;;2615542;39;20550;-55
2024/02/23 06:54:52;;;;;;;0.70;0.70;;;15.80;1.00;;;;;;2615477;39;20877;-54
2024/02/23 07:00:40;;;;;;;0.80;0.80;;;15.80;1.00;;;;;;2614706;54;21315;-53
2024/02/23 07:10:30;;;;;;;0.70;0.60;;;15.80;1.00;;;;;;2615131;54;20469;-56
2024/02/23 07:16:18;;;;;;;0.70;0.60;;;15.80;1.00;;;;;;2615097;54;20417;-54
2024/02/23 07:22:05;;;;;;;0.80;0.80;;;15.80;1.00;;;;;;2614875;54;20160;-55
2024/02/23 07:27:53;;;;;;;0.70;0.70;;;15.80;1.00;;;;;;2615385;54;20157;-56
2024/02/23 07:33:42;;;;;;;0.80;0.80;;;15.80;1.00;;;;;;2614722;54;20126;-56
2024/02/23 07:39:30;;;;;;;0.70;0.60;;;15.80;1.00;;;;;;2614268;54;20959;-54
2024/02/23 07:45:18;;;;;;;0.70;0.70;;;15.80;1.00;;;;;;2614640;54;20178;-56
2024/02/23 07:51:06;;;;;;;0.70;0.70;;;15.80;1.00;;;;;;2614685;39;20540;-56
2024/02/23 07:56:53;;;;;;;0.70;0.70;;;15.80;1.00;;;;;;2614702;54;20139;-56
2024/02/23 08:02:41;;;;;;;0.70;0.70;;;15.80;1.00;;;;;;2615006;54;20136;-55
2024/02/23 08:06:04;;;;;;;0.70;0.60;;;15.80;1.00;;;;;;2613951;54;20429;-55
2024/02/23 08:08:32;;;;;;;0.70;0.70;;;15.80;1.00;;;;;;2613414;54;20167;-54
2024/02/23 08:14:20;;;;;;;0.70;0.60;;;15.80;1.00;;;;;;2614423;54;20443;-56
2024/02/23 08:20:08;;;;;;;0.70;0.60;;;15.80;1.00;;;;;;2614742;54;20148;-54
2024/02/23 08:25:58;;;;;;;0.80;0.80;;;15.90;1.00;;;;;;2614612;54;20371;-55
2024/02/23 08:31:46;;;;;;;0.70;0.70;;;15.90;1.00;;;;;;2614332;54;20366;-54
2024/02/23 08:37:33;;;;;;;0.80;0.80;;;15.80;1.00;;;;;;2615151;39;20555;-55
2024/02/23 08:43:21;;;;;;;0.70;0.60;;;15.80;1.00;;;;;;2614710;54;20125;-55
2024/02/23 08:49:09;;;;;;;0.70;0.60;;;15.90;1.00;;;;;;2613908;54;20150;-53
2024/02/23 08:54:57;;;;;;;0.80;0.80;;;15.90;1.00;;;;;;2614714;54;20134;-54
2024/02/23 09:00:44;;;;;;;0.80;0.80;;;15.90;1.00;;;;;;2613896;54;20139;-55
2024/02/23 09:10:32;;;;;;;0.70;0.70;;;15.80;1.00;;;;;;2615596;54;20395;-56
2024/02/23 09:16:20;;;;;;;0.70;0.70;;;15.80;1.00;;;;;;2614068;54;20382;-56
2024/02/23 09:22:07;;;;;;;0.70;0.60;;;15.80;1.00;;;;;;2615714;54;20433;-56
2024/02/23 09:27:58;;;;;;;0.70;0.70;;;15.80;1.00;;;;;;2615733;54;20137;-59
2024/02/23 09:31:03;;;;;;;0.70;0.70;;;15.90;1.00;;;;;;2615433;54;20384;-59
2024/02/23 09:33:28;;;;;;;0.70;0.70;;;15.80;1.00;;;;;;2614280;54;20439;-58
2024/02/23 09:39:16;;;;;;;0.70;0.63;;;15.80;1.00;;;;;;2613984;54;20161;-60
2024/02/23 09:45:05;;;;;;;0.70;0.60;;;16.00;1.00;;;;;;2615208;54;20466;-58
2024/02/23 09:50:56;;;;;;;0.70;0.60;;;16.10;1.00;;;;;;2615194;54;20397;-57
2024/02/23 09:56:44;;;;;;;0.70;0.60;;;16.00;1.00;;;;;;2615491;54;20425;-59
2024/02/23 10:02:32;;;;;;;0.70;0.70;;;16.40;1.00;;;;;;2615003;54;20398;-59
2024/02/23 10:08:20;;;;;;;0.70;0.60;;;16.80;1.00;;;;;;2614299;54;20432;-57
2024/02/23 10:14:08;;;;;;;0.70;0.60;;;16.40;1.00;;;;;;2615108;54;20140;-58
2024/02/23 10:19:57;;;;;;;0.70;0.60;;;16.20;1.00;;;;;;2614927;39;20988;-59
2024/02/23 10:25:44;;;;;;;0.70;0.70;;;16.10;1.00;;;;;;2614949;54;20370;-58
2024/02/23 10:31:38;;;;;;;0.70;0.60;;;16.10;1.00;;;;;;2615224;54;20120;-59
2024/02/23 10:37:28;;;;;;;0.70;0.60;;;16.00;1.00;;;;;;2613990;54;20463;-59
2024/02/23 10:43:21;;;;;;;0.70;0.53;;;16.00;1.00;;;;;;2615206;54;20391;-59
2024/02/23 10:49:09;;;;;;;0.70;0.50;;;16.00;1.00;;;;;;2615071;54;20361;-56
2024/02/23 10:55:00;;;;;;;0.70;0.60;;;16.00;1.00;;;;;;2615000;54;20956;-58
2024/02/23 11:00:48;;;;;;;0.70;0.50;;;16.00;1.00;;;;;;2614983;54;20964;-59
2024/02/23 11:16:51;;;;;;;5.70;3.27;;;16.10;1.00;;;;;;2615500;39;20801;-55
2024/02/23 11:22:40;;;;;;;0.70;0.70;;;16.00;1.00;;;;;;2614617;54;20434;-57
2024/02/23 11:28:28;;;;;;;0.70;0.60;;;16.00;1.00;;;;;;2615230;54;20386;-55
2024/02/23 11:40:33;;;;;;;0.70;0.53;;;15.90;1.00;;;;;;2614830;54;20375;-54
2024/02/23 11:46:22;;;;;;;0.70;0.70;;;15.90;1.00;;;;;;2614689;54;20363;-51
2024/02/23 11:52:10;;;;;;;0.60;0.50;;;15.90;1.00;;;;;;2615096;54;20457;-55
2024/02/23 11:57:57;;;;;;;0.70;0.60;;;15.90;1.00;;;;;;2615157;39;20757;-52
2024/02/23 12:03:45;;;;;;;0.63;0.50;;;15.90;1.00;;;;;;2614402;54;20213;-55
2024/02/23 12:12:55;;;;;;;0.70;0.50;;;15.90;1.00;;;;;;2614320;54;20413;-50
2024/02/23 12:18:43;;;;;;;0.70;0.60;;;15.90;1.00;;;;;;2613985;54;21410;-53
2024/02/23 12:24:30;;;;;;;0.70;0.50;;;15.90;1.00;;;;;;2614048;54;20131;-53
2024/02/23 12:30:18;;;;;;;0.70;0.60;;;15.90;1.00;;;;;;2613627;54;20631;-53
2024/02/23 12:36:07;;;;;;;0.70;0.60;;;15.90;1.00;;;;;;2614457;54;20211;-55
2024/02/23 12:41:56;;;;;;;0.70;0.60;;;15.90;1.00;;;;;;2615013;39;20875;-53
2024/02/23 12:47:44;;;;;;;0.80;0.80;;;15.90;1.00;;;;;;2615428;54;20381;-51
2024/02/23 12:53:35;;;;;;;0.70;0.70;;;15.90;1.00;;;;;;2614851;54;20222;-58
2024/02/23 12:59:23;;;;;;;0.70;0.60;;;15.90;1.00;;;;;;2615470;39;20800;-55
2024/02/23 13:05:11;;;;;;;0.70;0.60;;;15.90;1.00;;;;;;2615009;54;20232;-54
2024/02/23 13:08:16;;;;;;;0.70;0.60;;;15.90;1.00;;;;;;2616300;39;21222;-51
2024/02/23 13:10:41;;;;;;;0.70;0.60;;;15.90;1.00;;;;;;2615554;54;20714;-53
2024/02/23 13:16:29;;;;;;;0.70;0.60;;;15.90;1.00;;;;;;2615295;54;20170;-52
2024/02/23 13:22:17;;;;;;;0.70;0.60;;;15.90;1.00;;;;;;2615442;54;20413;-54
2024/02/23 13:28:05;;;;;;;0.60;0.50;;;15.90;1.00;;;;;;2615641;39;20542;-54
2024/02/23 13:33:52;;;;;;;0.70;0.60;;;15.90;1.00;;;;;;2614876;54;20398;-54
2024/02/23 13:39:40;;;;;;;0.70;0.53;;;15.90;1.00;;;;;;2614503;54;20127;-53
2024/02/23 13:45:28;;;;;;;0.70;0.70;;;15.90;1.00;;;;;;2615020;54;20149;-54
2024/02/23 13:51:15;;;;;;;0.70;0.60;;;15.90;1.00;;;;;;2615529;54;20627;-56
2024/02/23 13:57:03;;;;;;;0.70;0.60;;;15.80;1.00;;;;;;2615142;54;20123;-54
2024/02/23 14:02:51;;;;;;;0.70;0.50;;;15.80;1.00;;;;;;2614486;54;20137;-54
2024/02/23 14:12:51;;;;;;;0.70;0.60;;;15.80;1.00;;;;;;2614721;54;20391;-56
2024/02/23 14:18:42;;;;;;;0.70;0.50;;;15.90;1.00;;;;;;2615212;54;20363;-55
2024/02/23 14:24:29;;;;;;;0.70;0.60;;;15.90;1.00;;;;;;2614972;54;20375;-50
2024/02/23 14:30:17;;;;;;;0.70;0.60;;;15.90;1.00;;;;;;2614358;54;20129;-56
2024/02/23 14:36:05;;;;;;;0.70;0.60;;;15.90;1.00;;;;;;2614384;54;20489;-56
2024/02/23 14:41:53;;;;;;;0.60;0.50;;;15.90;1.00;;;;;;2614365;54;20394;-55
2024/02/23 14:47:43;;;;;;;0.70;0.50;;;15.90;1.00;;;;;;2614566;54;20391;-56
2024/02/23 14:50:46;;;;;;;0.70;0.60;;;15.90;1.00;;;;;;2615425;39;20478;-55
2024/02/23 14:53:12;;;;;;;0.70;0.60;;;15.90;1.00;;;;;;2614695;54;20972;-56
2024/02/23 14:59:01;;;;;;;0.70;0.60;;;15.90;1.00;;;;;;2615192;54;20159;-56
2024/02/23 15:04:49;;;;;;;0.70;0.60;;;15.90;1.00;;;;;;2615211;54;21050;-56
2024/02/23 15:10:36;;;;;;;0.70;0.60;;;15.90;1.00;;;;;;2614921;54;20181;-56
2024/02/23 15:16:28;;;;;;;0.70;0.60;;;15.90;1.00;;;;;;2615174;54;20137;-51
2024/02/23 15:22:17;;;;;;;0.70;0.53;;;15.90;1.00;;;;;;2614974;54;20347;-54
2024/02/23 15:28:05;;;;;;;0.70;0.60;;;15.90;1.00;;;;;;2615145;54;20369;-54
2024/02/23 15:33:53;;;;;;;0.70;0.60;;;15.90;1.00;;;;;;2614451;54;20153;-51
2024/02/23 15:39:40;;;;;;;0.70;0.60;;;15.90;1.00;;;;;;2615056;54;20150;-56
2024/02/23 15:45:28;;;;;;;0.70;0.60;;;15.90;1.00;;;;;;2615052;54;20192;-54
2024/02/23 15:51:16;;;;;;;0.70;0.53;;;15.80;1.00;;;;;;2613952;54;20145;-52
2024/02/23 15:57:04;;;;;;;0.60;0.50;;;15.90;1.00;;;;;;2614979;54;20174;-55
2024/02/23 16:02:51;;;;;;;0.70;0.60;;;15.90;1.00;;;;;;2614672;54;20123;-53
2024/02/23 16:12:48;;;;;;;0.80;0.80;;;15.80;1.00;;;;;;2614276;54;20367;-51
2024/02/23 16:18:39;;;;;;;0.70;0.70;;;15.80;1.00;;;;;;2613523;54;20370;-49
2024/02/23 16:24:26;;;;;;;0.67;0.60;;;15.90;1.00;;;;;;2614469;54;20388;-54
2024/02/23 16:30:14;;;;;;;0.70;0.70;;;15.80;1.00;;;;;;2614639;54;20791;-56
2024/02/23 16:36:02;;;;;;;0.70;0.70;;;15.80;1.00;;;;;;2614615;54;20168;-55
2024/02/23 16:41:49;;;;;;;0.70;0.70;;;15.80;1.00;;;;;;2614404;54;20172;-57
2024/02/23 16:47:37;;;;;;;0.80;0.80;;;15.80;1.00;;;;;;2614943;54;20250;-54
2024/02/23 16:53:25;;;;;;;0.80;0.80;;;15.80;1.00;;;;;;2614121;54;20676;-58
2024/02/23 16:59:12;;;;;;;0.87;0.87;;;15.80;1.00;;;;;;2615104;39;20603;-56
2024/02/23 17:05:00;;;;;;;0.70;0.70;;;15.80;1.00;;;;;;2614474;39;20580;-58
2024/02/23 17:08:19;;;;;;;0.70;0.70;;;15.80;1.00;;;;;;2614213;54;20400;-58
2024/02/23 17:10:44;;;;;;;0.70;0.63;;;15.80;1.00;;;;;;2614657;54;20143;-58
2024/02/23 17:16:32;;;;;;;0.70;0.60;;;15.80;1.00;;;;;;2613417;54;20136;-57
2024/02/23 17:22:21;;;;;;;0.70;0.60;;;15.70;1.00;;;;;;2614493;54;20154;-59
2024/02/23 17:28:08;;;;;;;0.70;0.70;;;15.80;1.00;;;;;;2615252;54;20955;-55
2024/02/23 17:33:56;;;;;;;0.70;0.70;;;15.80;1.00;;;;;;2615146;54;20640;-60
2024/02/23 17:39:44;;;;;;;0.70;0.67;;;15.70;1.00;;;;;;2616040;31;20604;-60
2024/02/23 17:45:32;;;;;;;0.70;0.70;;;15.80;1.00;;;;;;2615300;54;20652;-60
2024/02/23 17:51:19;;;;;;;0.73;0.73;;;15.70;1.00;;;;;;2615365;54;20126;-58
2024/02/23 17:57:08;;;;;;;0.70;0.70;;;15.70;1.00;;;;;;2615016;54;20152;-58
2024/02/23 18:02:56;;;;;;;0.80;0.80;;;15.70;1.00;;;;;;2613749;54;20910;-58
2024/02/23 18:12:47;;;;;;;0.90;0.90;;;15.70;1.00;;;;;;2615616;39;20788;-58
2024/02/23 18:18:35;;;;;;;0.70;0.70;;;15.70;1.00;;;;;;2615092;54;20869;-58
2024/02/23 18:24:22;;;;;;;0.80;0.80;;;15.70;1.00;;;;;;2614498;54;20254;-58
2024/02/23 18:30:10;;;;;;;0.70;0.70;;;15.70;1.00;;;;;;2614264;54;20132;-58
2024/02/23 18:35:58;;;;;;;0.80;0.80;;;15.80;1.00;;;;;;2614510;54;21039;-61
2024/02/23 18:41:46;;;;;;;0.70;0.70;;;15.70;1.00;;;;;;2614808;54;20118;-57
2024/02/23 18:47:34;;;;;;;0.80;0.80;;;15.70;1.00;;;;;;2615044;54;20232;-56
2024/02/23 18:53:22;;;;;;;0.80;0.80;;;15.70;1.00;;;;;;2614232;54;20141;-55
2024/02/23 18:59:09;;;;;;;0.90;0.90;;;15.70;1.00;;;;;;2614236;54;20931;-54
2024/02/23 19:04:57;;;;;;;0.90;0.90;;;15.70;1.00;;;;;;2615124;39;20548;-52
2024/02/23 19:08:19;;;;;;;0.90;0.90;;;15.70;1.00;;;;;;2614944;54;20424;-54
2024/02/23 19:10:44;;;;;;;0.90;0.90;;;15.70;1.00;;;;;;2614457;54;20163;-55
2024/02/23 19:16:32;;;;;;;0.80;0.80;;;15.70;1.00;;;;;;2614574;54;20246;-55
2024/02/23 19:22:20;;;;;;;0.80;0.80;;;15.70;1.00;;;;;;2614412;54;20423;-56
2024/02/23 19:28:08;;;;;;;0.90;0.90;;;15.70;1.00;;;;;;2615169;54;20166;-53
2024/02/23 19:33:57;;;;;;;0.90;0.90;;;15.70;1.00;;;;;;2614764;54;20146;-56
2024/02/23 19:39:45;;;;;;;0.90;0.90;;;15.70;1.00;;;;;;2615010;54;20407;-57
2024/02/23 19:45:32;;;;;;;0.90;0.90;;;15.70;1.00;;;;;;2614925;54;20474;-57
2024/02/23 19:51:20;;;;;;;1.00;1.00;;;15.70;1.00;;;;;;2614757;54;20166;-56
2024/02/23 19:57:07;;;;;;;0.90;0.90;;;15.70;1.00;;;;;;2615414;39;20555;-56
2024/02/23 20:02:55;;;;;;;0.80;0.80;;;15.70;1.00;;;;;;2614004;54;20138;-55
2024/02/23 20:12:46;;;;;;;0.90;0.90;;;15.70;1.00;;;;;;2614717;54;21021;-56
2024/02/23 20:18:33;;;;;;;0.80;0.80;;;15.70;1.00;;;;;;2614363;54;20401;-53
2024/02/23 20:24:21;;;;;;;0.80;0.80;;;15.70;1.00;;;;;;2613609;54;20134;-56
2024/02/23 20:30:09;;;;;;;0.80;0.80;;;15.70;1.00;;;;;;2614765;54;20216;-53
2024/02/23 20:35:57;;;;;;;0.70;0.70;;;15.60;1.00;;;;;;2615170;54;20491;-55
2024/02/23 20:41:45;;;;;;;0.90;0.90;;;15.70;1.00;;;;;;2614596;54;20173;-56
2024/02/23 20:47:32;;;;;;;0.80;0.80;;;15.70;1.00;;;;;;2614086;54;20204;-54
2024/02/23 20:53:20;;;;;;;0.70;0.70;;;15.70;1.00;;;;;;2614260;54;20647;-57
2024/02/23 20:59:08;;;;;;;0.80;0.80;;;15.60;1.00;;;;;;2615055;39;20500;-54
2024/02/23 21:04:55;;;;;;;0.70;0.60;;;15.60;1.00;;;;;;2615652;54;20154;-59
2024/02/23 21:08:19;;;;;;;0.80;0.80;;;15.60;1.00;;;;;;2615365;54;20402;-52
2024/02/23 21:10:44;;;;;;;0.70;0.67;;;15.70;1.00;;;;;;2615259;54;20169;-54
2024/02/23 21:16:32;;;;;;;0.70;0.70;;;15.60;1.00;;;;;;2614553;54;20136;-54
2024/02/23 21:22:19;;;;;;;0.80;0.80;;;15.60;1.00;;;;;;2615192;54;20261;-51
2024/02/23 21:28:11;;;;;;;0.70;0.70;;;15.70;1.00;;;;;;2615564;54;20118;-53
2024/02/23 21:33:58;;;;;;;0.80;0.80;;;15.60;1.00;;;;;;2614952;54;20383;-55
2024/02/23 21:39:46;;;;;;;0.80;0.80;;;15.60;1.00;;;;;;2615258;54;20177;-55
2024/02/23 21:45:33;;;;;;;0.80;0.80;;;15.70;1.00;;;;;;2615375;54;20121;-56
2024/02/23 21:51:21;;;;;;;0.70;0.70;;;15.70;1.00;;;;;;2615494;54;20181;-54
2024/02/23 21:57:09;;;;;;;0.80;0.80;;;15.60;1.00;;;;;;2615493;54;20173;-55
2024/02/23 22:03:02;;;;;;;0.90;0.90;;;15.60;1.00;;;;;;2614564;54;20399;-55
2024/02/23 22:12:46;;;;;;;0.70;0.70;;;15.60;1.00;;;;;;2615307;54;20430;-55
2024/02/23 22:18:34;;;;;;;0.80;0.80;;;15.60;1.00;;;;;;2615040;54;20372;-56
2024/02/23 22:24:23;;;;;;;0.80;0.80;;;15.60;1.00;;;;;;2615054;54;20129;-58
2024/02/23 22:30:12;;;;;;;0.70;0.60;;;15.60;1.00;;;;;;2615475;54;20592;-53
2024/02/23 22:35:59;;;;;;;0.90;0.90;;;15.60;1.00;;;;;;2614815;54;20429;-58
2024/02/23 22:41:47;;;;;;;0.70;0.70;;;15.60;1.00;;;;;;2614906;54;20133;-58
2024/02/23 22:47:35;;;;;;;0.80;0.80;;;15.60;1.00;;;;;;2613739;54;20126;-59
2024/02/23 22:53:23;;;;;;;0.90;0.90;;;15.60;1.00;;;;;;2614400;54;20802;-55
2024/02/23 22:59:10;;;;;;;0.90;0.90;;;15.60;1.00;;;;;;2615029;54;20156;-59
2024/02/23 23:04:58;;;;;;;0.80;0.80;;;15.60;1.00;;;;;;2614559;54;20431;-59
2024/02/23 23:10:46;;;;;;;0.80;0.80;;;15.60;1.00;;;;;;2614940;54;20190;-58
2024/02/23 23:14:03;;;;;;;0.70;0.70;;;15.60;1.00;;;;;;2613784;54;20979;-59
2024/02/23 23:19:50;;;;;;;0.90;0.90;;;15.60;1.00;;;;;;2614676;54;20382;-59
2024/02/23 23:25:38;;;;;;;0.70;0.70;;;15.60;1.00;;;;;;2614525;54;20141;-55
2024/02/23 23:31:27;;;;;;;0.80;0.80;;;15.60;1.00;;;;;;2614929;54;20124;-54
2024/02/23 23:37:15;;;;;;;0.80;0.80;;;15.60;1.00;;;;;;2614917;54;20370;-55
2024/02/23 23:43:03;;;;;;;0.70;0.60;;;15.60;1.00;;;;;;2614407;54;20138;-55
2024/02/23 23:46:06;;;;;;;0.80;0.80;;;15.60;1.00;;;;;;2614485;31;20953;-56
2024/02/23 23:48:33;;;;;;;0.80;0.80;;;15.60;1.00;;;;;;2614028;54;20435;-54
2024/02/23 23:51:37;;;;;;;0.80;0.80;;;15.60;1.00;;;;;;2614782;54;20956;-54
2024/02/23 23:54:03;;;;;;;0.80;0.80;;;15.60;1.00;;;;;;2613897;51;20421;-56
2024/02/23 23:59:51;;;;;;;0.70;0.70;;;15.60;1.00;;;;;;2614295;54;20386;-56
